sensor_id;sensor_type;location;lat;lon;timestamp;temperature;humidity
8953;DHT22;4511;50.890;8.054;2022-09-01T00:00:22;17.90;99.90
8953;DHT22;4511;50.890;8.054;2022-09-01T00:02:54;17.90;99.90
8953;DHT22;4511;50.890;8.054;2022-09-01T00:05:21;17.90;99.90
8953;DHT22;4511;50.890;8.054;2022-09-01T00:07:48;18.00;99.90
8953;DHT22;4511;50.890;8.054;2022-09-01T00:10:15;17.90;99.90
8953;DHT22;4511;50.890;8.054;2022-09-01T00:12:42;17.90;99.90
8953;DHT22;4511;50.890;8.054;2022-09-01T00:15:11;17.90;99.90
8953;DHT22;4511;50.890;8.054;2022-09-01T00:17:38;17.80;99.90
8953;DHT22;4511;50.890;8.054;2022-09-01T00:20:07;17.80;99.90
8953;DHT22;4511;50.890;8.054;2022-09-01T00:22:35;17.80;99.90
8953;DHT22;4511;50.890;8.054;2022-09-01T00:25:02;17.80;99.90
8953;DHT22;4511;50.890;8.054;2022-09-01T00:27:29;17.80;99.90
8953;DHT22;4511;50.890;8.054;2022-09-01T00:29:56;17.70;99.90
8953;DHT22;4511;50.890;8.054;2022-09-01T00:32:23;17.70;99.90
8953;DHT22;4511;50.890;8.054;2022-09-01T00:34:50;17.80;99.90
8953;DHT22;4511;50.890;8.054;2022-09-01T00:37:18;17.80;99.90
8953;DHT22;4511;50.890;8.054;2022-09-01T00:39:45;17.90;99.90
8953;DHT22;4511;50.890;8.054;2022-09-01T00:42:12;17.80;99.90
8953;DHT22;4511;50.890;8.054;2022-09-01T00:44:39;17.90;99.90
8953;DHT22;4511;50.890;8.054;2022-09-01T00:47:05;17.80;99.90
8953;DHT22;4511;50.890;8.054;2022-09-01T00:49:35;17.70;99.90
8953;DHT22;4511;50.890;8.054;2022-09-01T00:52:10;17.60;99.90
8953;DHT22;4511;50.890;8.054;2022-09-01T00:54:40;17.50;99.90
8953;DHT22;4511;50.890;8.054;2022-09-01T00:57:09;17.50;99.90
8953;DHT22;4511;50.890;8.054;2022-09-01T00:59:41;17.50;99.90
8953;DHT22;4511;50.890;8.054;2022-09-01T01:02:08;17.40;99.90
8953;DHT22;4511;50.890;8.054;2022-09-01T01:04:35;17.30;99.90
8953;DHT22;4511;50.890;8.054;2022-09-01T01:07:02;17.30;99.90
8953;DHT22;4511;50.890;8.054;2022-09-01T01:09:39;17.20;99.90
8953;DHT22;4511;50.890;8.054;2022-09-01T01:12:10;17.20;99.90
8953;DHT22;4511;50.890;8.054;2022-09-01T01:14:43;17.10;99.90
8953;DHT22;4511;50.890;8.054;2022-09-01T01:17:10;17.00;99.90
8953;DHT22;4511;50.890;8.054;2022-09-01T01:19:41;17.10;99.90
8953;DHT22;4511;50.890;8.054;2022-09-01T01:22:32;17.00;99.90
8953;DHT22;4511;50.890;8.054;2022-09-01T01:25:21;17.00;99.90
8953;DHT22;4511;50.890;8.054;2022-09-01T01:27:48;16.80;99.90
8953;DHT22;4511;50.890;8.054;2022-09-01T01:30:17;16.80;99.90
8953;DHT22;4511;50.890;8.054;2022-09-01T01:32:45;16.80;99.90
8953;DHT22;4511;50.890;8.054;2022-09-01T01:35:14;16.80;99.90
8953;DHT22;4511;50.890;8.054;2022-09-01T01:37:41;16.90;99.90
8953;DHT22;4511;50.890;8.054;2022-09-01T01:40:11;16.90;99.90
8953;DHT22;4511;50.890;8.054;2022-09-01T01:42:42;17.00;99.90
8953;DHT22;4511;50.890;8.054;2022-09-01T01:45:11;16.90;99.90
8953;DHT22;4511;50.890;8.054;2022-09-01T01:47:40;16.90;99.90
8953;DHT22;4511;50.890;8.054;2022-09-01T01:50:08;17.00;99.90
8953;DHT22;4511;50.890;8.054;2022-09-01T01:52:37;17.10;99.90
8953;DHT22;4511;50.890;8.054;2022-09-01T01:55:04;17.10;99.90
8953;DHT22;4511;50.890;8.054;2022-09-01T01:57:35;17.10;99.90
8953;DHT22;4511;50.890;8.054;2022-09-01T02:00:06;17.10;99.90
8953;DHT22;4511;50.890;8.054;2022-09-01T02:02:34;17.10;99.90
8953;DHT22;4511;50.890;8.054;2022-09-01T02:05:02;17.10;99.90
8953;DHT22;4511;50.890;8.054;2022-09-01T02:07:31;17.10;99.90
8953;DHT22;4511;50.890;8.054;2022-09-01T02:09:57;17.20;99.90
8953;DHT22;4511;50.890;8.054;2022-09-01T02:12:26;17.20;99.90
8953;DHT22;4511;50.890;8.054;2022-09-01T02:14:53;17.10;99.90
8953;DHT22;4511;50.890;8.054;2022-09-01T02:17:21;17.20;99.90
8953;DHT22;4511;50.890;8.054;2022-09-01T02:19:49;17.20;99.90
8953;DHT22;4511;50.890;8.054;2022-09-01T02:22:21;17.20;99.90
8953;DHT22;4511;50.890;8.054;2022-09-01T02:24:48;17.10;99.90
8953;DHT22;4511;50.890;8.054;2022-09-01T02:27:17;17.20;99.90
8953;DHT22;4511;50.890;8.054;2022-09-01T02:29:46;17.10;99.90
8953;DHT22;4511;50.890;8.054;2022-09-01T02:32:16;17.10;99.90
8953;DHT22;4511;50.890;8.054;2022-09-01T02:34:47;17.10;99.90
8953;DHT22;4511;50.890;8.054;2022-09-01T02:37:19;17.00;99.90
8953;DHT22;4511;50.890;8.054;2022-09-01T02:39:50;17.00;99.90
8953;DHT22;4511;50.890;8.054;2022-09-01T02:42:17;17.00;99.90
8953;DHT22;4511;50.890;8.054;2022-09-01T02:44:52;17.00;99.90
8953;DHT22;4511;50.890;8.054;2022-09-01T02:47:20;17.00;99.90
8953;DHT22;4511;50.890;8.054;2022-09-01T02:49:48;16.90;99.90
8953;DHT22;4511;50.890;8.054;2022-09-01T02:52:15;16.70;99.90
8953;DHT22;4511;50.890;8.054;2022-09-01T02:54:46;16.70;99.90
8953;DHT22;4511;50.890;8.054;2022-09-01T02:57:14;16.70;99.90
8953;DHT22;4511;50.890;8.054;2022-09-01T02:59:41;16.60;99.90
8953;DHT22;4511;50.890;8.054;2022-09-01T03:02:09;16.60;99.90
8953;DHT22;4511;50.890;8.054;2022-09-01T03:04:36;16.50;99.90
8953;DHT22;4511;50.890;8.054;2022-09-01T03:07:05;16.50;99.90
8953;DHT22;4511;50.890;8.054;2022-09-01T03:09:33;16.50;99.90
8953;DHT22;4511;50.890;8.054;2022-09-01T03:12:01;16.40;99.90
8953;DHT22;4511;50.890;8.054;2022-09-01T03:14:28;16.30;99.90
8953;DHT22;4511;50.890;8.054;2022-09-01T03:16:56;16.20;99.90
8953;DHT22;4511;50.890;8.054;2022-09-01T03:19:24;16.20;99.90
8953;DHT22;4511;50.890;8.054;2022-09-01T03:21:51;16.10;99.90
8953;DHT22;4511;50.890;8.054;2022-09-01T03:24:20;16.00;99.90
8953;DHT22;4511;50.890;8.054;2022-09-01T03:26:49;16.00;99.90
8953;DHT22;4511;50.890;8.054;2022-09-01T03:29:17;16.00;99.90
8953;DHT22;4511;50.890;8.054;2022-09-01T03:31:44;15.90;99.90
8953;DHT22;4511;50.890;8.054;2022-09-01T03:34:11;15.90;99.90
8953;DHT22;4511;50.890;8.054;2022-09-01T03:36:38;15.80;99.90
8953;DHT22;4511;50.890;8.054;2022-09-01T03:39:14;15.80;99.90
8953;DHT22;4511;50.890;8.054;2022-09-01T03:41:43;15.70;99.90
8953;DHT22;4511;50.890;8.054;2022-09-01T03:44:11;15.70;99.90
8953;DHT22;4511;50.890;8.054;2022-09-01T03:46:38;15.70;99.90
8953;DHT22;4511;50.890;8.054;2022-09-01T03:49:05;15.70;99.90
8953;DHT22;4511;50.890;8.054;2022-09-01T03:51:36;15.70;99.90
8953;DHT22;4511;50.890;8.054;2022-09-01T03:54:05;15.60;99.90
8953;DHT22;4511;50.890;8.054;2022-09-01T03:56:32;15.50;99.90
8953;DHT22;4511;50.890;8.054;2022-09-01T03:59:00;15.30;99.90
8953;DHT22;4511;50.890;8.054;2022-09-01T04:01:29;15.30;99.90
8953;DHT22;4511;50.890;8.054;2022-09-01T04:03:59;15.40;99.90
8953;DHT22;4511;50.890;8.054;2022-09-01T04:06:26;15.30;99.90
8953;DHT22;4511;50.890;8.054;2022-09-01T04:08:54;15.30;99.90
8953;DHT22;4511;50.890;8.054;2022-09-01T04:11:27;15.20;99.90
8953;DHT22;4511;50.890;8.054;2022-09-01T04:13:54;15.20;99.90
8953;DHT22;4511;50.890;8.054;2022-09-01T04:16:24;15.20;99.90
8953;DHT22;4511;50.890;8.054;2022-09-01T04:19:10;15.10;99.90
8953;DHT22;4511;50.890;8.054;2022-09-01T04:21:51;15.20;99.90
8953;DHT22;4511;50.890;8.054;2022-09-01T04:24:19;15.10;99.90
8953;DHT22;4511;50.890;8.054;2022-09-01T04:26:48;15.10;99.90
8953;DHT22;4511;50.890;8.054;2022-09-01T04:29:16;15.00;99.90
8953;DHT22;4511;50.890;8.054;2022-09-01T04:31:50;15.00;99.90
8953;DHT22;4511;50.890;8.054;2022-09-01T04:34:18;15.00;99.90
8953;DHT22;4511;50.890;8.054;2022-09-01T04:36:45;15.00;99.90
8953;DHT22;4511;50.890;8.054;2022-09-01T04:39:13;15.00;99.90
8953;DHT22;4511;50.890;8.054;2022-09-01T04:41:41;15.00;99.90
8953;DHT22;4511;50.890;8.054;2022-09-01T04:44:10;14.90;99.90
8953;DHT22;4511;50.890;8.054;2022-09-01T04:46:39;14.90;99.90
8953;DHT22;4511;50.890;8.054;2022-09-01T04:49:12;14.90;99.90
8953;DHT22;4511;50.890;8.054;2022-09-01T04:51:45;15.00;99.90
8953;DHT22;4511;50.890;8.054;2022-09-01T04:54:13;14.90;99.90
8953;DHT22;4511;50.890;8.054;2022-09-01T04:56:43;15.00;99.90
8953;DHT22;4511;50.890;8.054;2022-09-01T04:59:11;14.90;99.90
8953;DHT22;4511;50.890;8.054;2022-09-01T05:01:39;14.90;99.90
8953;DHT22;4511;50.890;8.054;2022-09-01T05:04:09;14.90;99.90
8953;DHT22;4511;50.890;8.054;2022-09-01T05:06:39;15.00;99.90
8953;DHT22;4511;50.890;8.054;2022-09-01T05:09:07;15.20;99.90
8953;DHT22;4511;50.890;8.054;2022-09-01T05:11:35;15.20;99.90
8953;DHT22;4511;50.890;8.054;2022-09-01T05:14:03;15.30;99.90
8953;DHT22;4511;50.890;8.054;2022-09-01T05:16:32;15.40;99.90
8953;DHT22;4511;50.890;8.054;2022-09-01T05:19:00;15.40;99.90
8953;DHT22;4511;50.890;8.054;2022-09-01T05:21:27;15.30;99.90
8953;DHT22;4511;50.890;8.054;2022-09-01T05:23:57;15.70;99.90
8953;DHT22;4511;50.890;8.054;2022-09-01T05:26:28;15.80;99.90
8953;DHT22;4511;50.890;8.054;2022-09-01T05:28:58;15.60;99.90
8953;DHT22;4511;50.890;8.054;2022-09-01T05:31:27;15.50;99.90
8953;DHT22;4511;50.890;8.054;2022-09-01T05:33:59;15.30;99.90
8953;DHT22;4511;50.890;8.054;2022-09-01T05:36:26;15.20;99.90
8953;DHT22;4511;50.890;8.054;2022-09-01T05:38:57;15.20;99.90
8953;DHT22;4511;50.890;8.054;2022-09-01T05:41:24;15.10;99.90
8953;DHT22;4511;50.890;8.054;2022-09-01T05:43:50;15.10;99.90
8953;DHT22;4511;50.890;8.054;2022-09-01T05:46:20;15.10;99.90
8953;DHT22;4511;50.890;8.054;2022-09-01T05:48:51;15.10;99.90
8953;DHT22;4511;50.890;8.054;2022-09-01T05:51:21;15.30;99.90
8953;DHT22;4511;50.890;8.054;2022-09-01T05:53:48;15.40;99.90
8953;DHT22;4511;50.890;8.054;2022-09-01T05:56:18;15.40;99.90
8953;DHT22;4511;50.890;8.054;2022-09-01T05:58:46;15.50;99.90
8953;DHT22;4511;50.890;8.054;2022-09-01T06:01:16;15.50;99.90
8953;DHT22;4511;50.890;8.054;2022-09-01T06:03:47;15.50;99.90
8953;DHT22;4511;50.890;8.054;2022-09-01T06:06:14;15.60;99.90
8953;DHT22;4511;50.890;8.054;2022-09-01T06:08:41;15.70;99.90
8953;DHT22;4511;50.890;8.054;2022-09-01T06:11:10;15.80;99.90
8953;DHT22;4511;50.890;8.054;2022-09-01T06:13:43;15.80;99.90
8953;DHT22;4511;50.890;8.054;2022-09-01T06:16:12;15.90;99.90
8953;DHT22;4511;50.890;8.054;2022-09-01T06:18:38;15.90;99.90
8953;DHT22;4511;50.890;8.054;2022-09-01T06:21:09;16.00;99.90
8953;DHT22;4511;50.890;8.054;2022-09-01T06:23:36;16.20;99.90
8953;DHT22;4511;50.890;8.054;2022-09-01T06:26:03;16.20;99.90
8953;DHT22;4511;50.890;8.054;2022-09-01T06:28:31;16.20;99.90
8953;DHT22;4511;50.890;8.054;2022-09-01T06:31:05;16.30;99.90
8953;DHT22;4511;50.890;8.054;2022-09-01T06:33:32;16.40;99.90
8953;DHT22;4511;50.890;8.054;2022-09-01T06:36:01;16.30;99.90
8953;DHT22;4511;50.890;8.054;2022-09-01T06:38:28;16.50;99.90
8953;DHT22;4511;50.890;8.054;2022-09-01T06:41:00;16.60;99.90
8953;DHT22;4511;50.890;8.054;2022-09-01T06:43:28;16.70;99.90
8953;DHT22;4511;50.890;8.054;2022-09-01T06:45:59;16.70;99.90
8953;DHT22;4511;50.890;8.054;2022-09-01T06:48:27;16.90;99.90
8953;DHT22;4511;50.890;8.054;2022-09-01T06:50:57;16.90;99.90
8953;DHT22;4511;50.890;8.054;2022-09-01T06:53:27;17.00;99.90
8953;DHT22;4511;50.890;8.054;2022-09-01T06:55:55;17.00;99.90
8953;DHT22;4511;50.890;8.054;2022-09-01T06:58:23;17.00;99.90
8953;DHT22;4511;50.890;8.054;2022-09-01T07:00:50;17.10;99.90
8953;DHT22;4511;50.890;8.054;2022-09-01T07:03:17;17.20;99.90
8953;DHT22;4511;50.890;8.054;2022-09-01T07:05:46;17.30;99.90
8953;DHT22;4511;50.890;8.054;2022-09-01T07:08:15;17.40;99.90
8953;DHT22;4511;50.890;8.054;2022-09-01T07:10:46;17.50;99.90
8953;DHT22;4511;50.890;8.054;2022-09-01T07:13:16;17.50;99.90
8953;DHT22;4511;50.890;8.054;2022-09-01T07:15:45;17.60;99.90
8953;DHT22;4511;50.890;8.054;2022-09-01T07:18:14;17.70;99.90
8953;DHT22;4511;50.890;8.054;2022-09-01T07:20:42;17.80;99.90
8953;DHT22;4511;50.890;8.054;2022-09-01T07:23:10;17.80;99.90
8953;DHT22;4511;50.890;8.054;2022-09-01T07:25:39;17.90;99.90
8953;DHT22;4511;50.890;8.054;2022-09-01T07:28:06;18.00;99.90
8953;DHT22;4511;50.890;8.054;2022-09-01T07:30:39;18.10;99.90
8953;DHT22;4511;50.890;8.054;2022-09-01T07:33:07;18.10;99.90
8953;DHT22;4511;50.890;8.054;2022-09-01T07:35:36;18.20;99.90
8953;DHT22;4511;50.890;8.054;2022-09-01T07:38:04;18.30;99.90
8953;DHT22;4511;50.890;8.054;2022-09-01T07:40:36;18.40;99.90
8953;DHT22;4511;50.890;8.054;2022-09-01T07:43:05;18.40;99.90
8953;DHT22;4511;50.890;8.054;2022-09-01T07:45:34;18.50;99.90
8953;DHT22;4511;50.890;8.054;2022-09-01T07:48:04;18.60;99.90
8953;DHT22;4511;50.890;8.054;2022-09-01T07:50:33;18.60;99.90
8953;DHT22;4511;50.890;8.054;2022-09-01T07:53:00;18.60;99.90
8953;DHT22;4511;50.890;8.054;2022-09-01T07:55:27;18.70;99.90
8953;DHT22;4511;50.890;8.054;2022-09-01T07:57:55;18.80;99.90
8953;DHT22;4511;50.890;8.054;2022-09-01T08:00:24;18.90;99.90
8953;DHT22;4511;50.890;8.054;2022-09-01T08:02:52;18.90;99.90
8953;DHT22;4511;50.890;8.054;2022-09-01T08:05:19;18.90;99.90
8953;DHT22;4511;50.890;8.054;2022-09-01T08:07:50;19.00;99.90
8953;DHT22;4511;50.890;8.054;2022-09-01T08:10:17;19.00;99.90
8953;DHT22;4511;50.890;8.054;2022-09-01T08:12:44;19.10;99.90
8953;DHT22;4511;50.890;8.054;2022-09-01T08:15:12;19.10;99.90
8953;DHT22;4511;50.890;8.054;2022-09-01T08:17:39;19.10;99.90
8953;DHT22;4511;50.890;8.054;2022-09-01T08:20:07;19.20;99.90
8953;DHT22;4511;50.890;8.054;2022-09-01T08:22:34;19.30;99.90
8953;DHT22;4511;50.890;8.054;2022-09-01T08:25:03;19.30;99.90
8953;DHT22;4511;50.890;8.054;2022-09-01T08:27:31;19.40;99.90
8953;DHT22;4511;50.890;8.054;2022-09-01T08:29:57;19.40;99.90
8953;DHT22;4511;50.890;8.054;2022-09-01T08:32:26;19.60;99.90
8953;DHT22;4511;50.890;8.054;2022-09-01T08:34:53;19.60;99.90
8953;DHT22;4511;50.890;8.054;2022-09-01T08:37:21;19.70;99.90
8953;DHT22;4511;50.890;8.054;2022-09-01T08:39:48;19.70;99.90
8953;DHT22;4511;50.890;8.054;2022-09-01T08:42:26;19.80;99.90
8953;DHT22;4511;50.890;8.054;2022-09-01T08:45:02;20.00;99.90
8953;DHT22;4511;50.890;8.054;2022-09-01T08:47:32;20.00;99.90
8953;DHT22;4511;50.890;8.054;2022-09-01T08:50:00;20.10;99.90
8953;DHT22;4511;50.890;8.054;2022-09-01T08:52:30;20.20;99.90
8953;DHT22;4511;50.890;8.054;2022-09-01T08:55:02;20.30;99.90
8953;DHT22;4511;50.890;8.054;2022-09-01T08:57:33;20.20;99.90
8953;DHT22;4511;50.890;8.054;2022-09-01T09:00:01;20.30;99.90
8953;DHT22;4511;50.890;8.054;2022-09-01T09:02:44;20.30;99.90
8953;DHT22;4511;50.890;8.054;2022-09-01T09:05:27;20.40;99.90
8953;DHT22;4511;50.890;8.054;2022-09-01T09:08:06;20.40;99.90
8953;DHT22;4511;50.890;8.054;2022-09-01T09:10:41;20.50;99.90
8953;DHT22;4511;50.890;8.054;2022-09-01T09:13:14;20.60;99.90
8953;DHT22;4511;50.890;8.054;2022-09-01T09:15:50;20.80;99.90
8953;DHT22;4511;50.890;8.054;2022-09-01T09:18:27;20.80;99.90
8953;DHT22;4511;50.890;8.054;2022-09-01T09:20:55;21.00;99.90
8953;DHT22;4511;50.890;8.054;2022-09-01T09:23:26;21.10;99.90
8953;DHT22;4511;50.890;8.054;2022-09-01T09:25:54;21.00;99.90
8953;DHT22;4511;50.890;8.054;2022-09-01T09:28:21;21.20;99.90
8953;DHT22;4511;50.890;8.054;2022-09-01T09:30:48;21.30;99.90
8953;DHT22;4511;50.890;8.054;2022-09-01T09:33:35;21.30;99.90
8953;DHT22;4511;50.890;8.054;2022-09-01T09:36:16;21.50;99.90
8953;DHT22;4511;50.890;8.054;2022-09-01T09:38:45;21.50;99.90
8953;DHT22;4511;50.890;8.054;2022-09-01T09:41:16;21.50;99.90
8953;DHT22;4511;50.890;8.054;2022-09-01T09:43:45;21.70;99.90
8953;DHT22;4511;50.890;8.054;2022-09-01T09:46:23;21.80;99.90
8953;DHT22;4511;50.890;8.054;2022-09-01T09:49:14;21.90;99.90
8953;DHT22;4511;50.890;8.054;2022-09-01T09:51:45;22.10;99.90
8953;DHT22;4511;50.890;8.054;2022-09-01T09:54:18;22.30;99.90
8953;DHT22;4511;50.890;8.054;2022-09-01T09:56:45;22.50;99.90
8953;DHT22;4511;50.890;8.054;2022-09-01T09:59:26;22.50;99.90
8953;DHT22;4511;50.890;8.054;2022-09-01T10:01:56;22.70;99.90
8953;DHT22;4511;50.890;8.054;2022-09-01T10:04:34;22.80;99.90
8953;DHT22;4511;50.890;8.054;2022-09-01T10:07:23;23.00;99.90
8953;DHT22;4511;50.890;8.054;2022-09-01T10:09:51;23.00;99.90
8953;DHT22;4511;50.890;8.054;2022-09-01T10:12:18;23.30;99.90
8953;DHT22;4511;50.890;8.054;2022-09-01T10:14:49;23.50;99.90
8953;DHT22;4511;50.890;8.054;2022-09-01T10:17:22;23.60;99.90
8953;DHT22;4511;50.890;8.054;2022-09-01T10:19:53;23.60;99.90
8953;DHT22;4511;50.890;8.054;2022-09-01T10:22:23;23.90;99.90
8953;DHT22;4511;50.890;8.054;2022-09-01T10:24:50;23.70;99.90
8953;DHT22;4511;50.890;8.054;2022-09-01T10:27:20;23.70;99.90
8953;DHT22;4511;50.890;8.054;2022-09-01T10:29:52;23.80;99.30
8953;DHT22;4511;50.890;8.054;2022-09-01T10:32:23;23.80;99.00
8953;DHT22;4511;50.890;8.054;2022-09-01T10:34:52;24.00;98.50
8953;DHT22;4511;50.890;8.054;2022-09-01T10:37:20;24.30;98.20
8953;DHT22;4511;50.890;8.054;2022-09-01T10:40:11;24.60;96.70
8953;DHT22;4511;50.890;8.054;2022-09-01T10:42:39;24.90;96.00
8953;DHT22;4511;50.890;8.054;2022-09-01T10:45:15;25.20;95.10
8953;DHT22;4511;50.890;8.054;2022-09-01T10:47:44;25.30;94.40
8953;DHT22;4511;50.890;8.054;2022-09-01T10:50:28;25.30;93.70
8953;DHT22;4511;50.890;8.054;2022-09-01T10:52:59;25.60;93.30
8953;DHT22;4511;50.890;8.054;2022-09-01T10:55:31;25.70;92.00
8953;DHT22;4511;50.890;8.054;2022-09-01T10:58:29;25.90;92.30
8953;DHT22;4511;50.890;8.054;2022-09-01T11:01:00;26.00;91.80
8953;DHT22;4511;50.890;8.054;2022-09-01T11:03:38;26.10;90.00
8953;DHT22;4511;50.890;8.054;2022-09-01T11:06:07;26.10;90.50
8953;DHT22;4511;50.890;8.054;2022-09-01T11:08:43;26.20;90.30
8953;DHT22;4511;50.890;8.054;2022-09-01T11:11:22;26.50;88.70
8953;DHT22;4511;50.890;8.054;2022-09-01T11:13:52;26.70;86.50
8953;DHT22;4511;50.890;8.054;2022-09-01T11:16:33;26.40;86.80
8953;DHT22;4511;50.890;8.054;2022-09-01T11:19:34;26.40;86.80
8953;DHT22;4511;50.890;8.054;2022-09-01T11:25:06;26.10;85.30
8953;DHT22;4511;50.890;8.054;2022-09-01T11:30:42;26.50;84.70
8953;DHT22;4511;50.890;8.054;2022-09-01T11:33:42;26.30;83.10
8953;DHT22;4511;50.890;8.054;2022-09-01T11:36:15;26.10;83.60
8953;DHT22;4511;50.890;8.054;2022-09-01T11:38:51;26.10;82.20
8953;DHT22;4511;50.890;8.054;2022-09-01T11:41:24;26.20;83.00
8953;DHT22;4511;50.890;8.054;2022-09-01T11:43:54;26.80;83.30
8953;DHT22;4511;50.890;8.054;2022-09-01T11:46:27;26.90;81.40
8953;DHT22;4511;50.890;8.054;2022-09-01T11:48:55;26.70;80.30
8953;DHT22;4511;50.890;8.054;2022-09-01T11:51:22;26.10;81.70
8953;DHT22;4511;50.890;8.054;2022-09-01T11:53:51;25.90;81.00
8953;DHT22;4511;50.890;8.054;2022-09-01T11:56:25;25.80;81.60
8953;DHT22;4511;50.890;8.054;2022-09-01T11:58:53;25.80;80.50
8953;DHT22;4511;50.890;8.054;2022-09-01T12:01:22;26.40;81.20
8953;DHT22;4511;50.890;8.054;2022-09-01T12:03:56;26.80;78.40
8953;DHT22;4511;50.890;8.054;2022-09-01T12:06:25;27.10;77.70
8953;DHT22;4511;50.890;8.054;2022-09-01T12:08:57;27.10;77.70
8953;DHT22;4511;50.890;8.054;2022-09-01T12:11:27;26.70;76.00
8953;DHT22;4511;50.890;8.054;2022-09-01T12:13:57;26.50;76.80
8953;DHT22;4511;50.890;8.054;2022-09-01T12:16:26;27.00;76.50
8953;DHT22;4511;50.890;8.054;2022-09-01T12:18:55;27.80;76.40
8953;DHT22;4511;50.890;8.054;2022-09-01T12:21:25;27.90;75.00
8953;DHT22;4511;50.890;8.054;2022-09-01T12:23:52;28.20;72.60
8953;DHT22;4511;50.890;8.054;2022-09-01T12:26:24;28.20;70.80
8953;DHT22;4511;50.890;8.054;2022-09-01T12:28:51;28.50;69.90
8953;DHT22;4511;50.890;8.054;2022-09-01T12:31:22;28.60;66.70
8953;DHT22;4511;50.890;8.054;2022-09-01T12:33:50;28.70;71.40
8953;DHT22;4511;50.890;8.054;2022-09-01T12:36:23;28.90;65.80
8953;DHT22;4511;50.890;8.054;2022-09-01T12:38:51;29.40;64.20
8953;DHT22;4511;50.890;8.054;2022-09-01T12:41:40;29.80;62.80
8953;DHT22;4511;50.890;8.054;2022-09-01T12:44:29;30.00;63.50
8953;DHT22;4511;50.890;8.054;2022-09-01T12:46:58;29.80;63.90
8953;DHT22;4511;50.890;8.054;2022-09-01T12:49:35;30.20;63.90
8953;DHT22;4511;50.890;8.054;2022-09-01T12:52:09;30.20;63.70
8953;DHT22;4511;50.890;8.054;2022-09-01T12:54:36;30.10;62.00
8953;DHT22;4511;50.890;8.054;2022-09-01T12:57:04;30.70;61.60
8953;DHT22;4511;50.890;8.054;2022-09-01T12:59:32;30.00;61.20
8953;DHT22;4511;50.890;8.054;2022-09-01T13:02:26;29.70;62.20
8953;DHT22;4511;50.890;8.054;2022-09-01T13:04:53;30.20;60.80
8953;DHT22;4511;50.890;8.054;2022-09-01T13:07:19;30.70;59.60
8953;DHT22;4511;50.890;8.054;2022-09-01T13:09:46;31.00;58.50
8953;DHT22;4511;50.890;8.054;2022-09-01T13:12:21;30.70;58.20
8953;DHT22;4511;50.890;8.054;2022-09-01T13:14:48;30.10;58.30
8953;DHT22;4511;50.890;8.054;2022-09-01T13:17:15;29.90;58.60
8953;DHT22;4511;50.890;8.054;2022-09-01T13:19:43;30.00;58.60
8953;DHT22;4511;50.890;8.054;2022-09-01T13:22:10;29.70;58.60
8953;DHT22;4511;50.890;8.054;2022-09-01T13:24:37;29.30;59.20
8953;DHT22;4511;50.890;8.054;2022-09-01T13:27:04;28.70;60.20
8953;DHT22;4511;50.890;8.054;2022-09-01T13:29:32;29.00;59.60
8953;DHT22;4511;50.890;8.054;2022-09-01T13:32:00;29.70;59.40
8953;DHT22;4511;50.890;8.054;2022-09-01T13:34:29;30.30;58.50
8953;DHT22;4511;50.890;8.054;2022-09-01T13:36:55;30.90;56.90
8953;DHT22;4511;50.890;8.054;2022-09-01T13:39:22;31.10;55.90
8953;DHT22;4511;50.890;8.054;2022-09-01T13:41:49;31.20;55.60
8953;DHT22;4511;50.890;8.054;2022-09-01T13:44:17;31.20;55.60
8953;DHT22;4511;50.890;8.054;2022-09-01T13:46:45;31.40;54.10
8953;DHT22;4511;50.890;8.054;2022-09-01T13:49:12;31.80;53.60
8953;DHT22;4511;50.890;8.054;2022-09-01T13:51:39;31.70;52.60
8953;DHT22;4511;50.890;8.054;2022-09-01T13:54:06;31.80;52.30
8953;DHT22;4511;50.890;8.054;2022-09-01T13:56:33;32.00;52.60
8953;DHT22;4511;50.890;8.054;2022-09-01T13:59:01;32.00;52.50
8953;DHT22;4511;50.890;8.054;2022-09-01T14:01:28;32.30;51.50
8953;DHT22;4511;50.890;8.054;2022-09-01T14:03:56;32.90;51.60
8953;DHT22;4511;50.890;8.054;2022-09-01T14:06:23;32.00;50.50
8953;DHT22;4511;50.890;8.054;2022-09-01T14:08:50;31.10;51.90
8953;DHT22;4511;50.890;8.054;2022-09-01T14:11:17;30.20;52.50
8953;DHT22;4511;50.890;8.054;2022-09-01T14:13:44;29.30;53.40
8953;DHT22;4511;50.890;8.054;2022-09-01T14:16:12;28.70;54.50
8953;DHT22;4511;50.890;8.054;2022-09-01T14:18:40;28.30;55.30
8953;DHT22;4511;50.890;8.054;2022-09-01T14:21:11;28.20;55.70
8953;DHT22;4511;50.890;8.054;2022-09-01T14:23:39;28.50;55.90
8953;DHT22;4511;50.890;8.054;2022-09-01T14:26:08;29.50;54.30
8953;DHT22;4511;50.890;8.054;2022-09-01T14:28:36;29.50;53.70
8953;DHT22;4511;50.890;8.054;2022-09-01T14:31:07;28.90;53.60
8953;DHT22;4511;50.890;8.054;2022-09-01T14:33:34;28.60;54.10
8953;DHT22;4511;50.890;8.054;2022-09-01T14:36:02;28.50;54.50
8953;DHT22;4511;50.890;8.054;2022-09-01T14:38:31;28.30;57.60
8953;DHT22;4511;50.890;8.054;2022-09-01T14:40:58;28.90;54.90
8953;DHT22;4511;50.890;8.054;2022-09-01T14:43:24;30.30;53.30
8953;DHT22;4511;50.890;8.054;2022-09-01T14:46:01;31.30;51.90
8953;DHT22;4511;50.890;8.054;2022-09-01T14:48:31;31.80;51.10
8953;DHT22;4511;50.890;8.054;2022-09-01T14:50:59;32.50;50.30
8953;DHT22;4511;50.890;8.054;2022-09-01T14:53:27;32.30;49.80
8953;DHT22;4511;50.890;8.054;2022-09-01T14:55:55;32.60;50.00
8953;DHT22;4511;50.890;8.054;2022-09-01T14:58:23;32.60;49.30
8953;DHT22;4511;50.890;8.054;2022-09-01T15:00:51;31.80;50.00
8953;DHT22;4511;50.890;8.054;2022-09-01T15:03:19;31.30;50.10
8953;DHT22;4511;50.890;8.054;2022-09-01T15:05:46;31.60;50.30
8953;DHT22;4511;50.890;8.054;2022-09-01T15:08:14;31.10;50.00
8953;DHT22;4511;50.890;8.054;2022-09-01T15:10:42;30.60;51.10
8953;DHT22;4511;50.890;8.054;2022-09-01T15:13:10;29.80;51.90
8953;DHT22;4511;50.890;8.054;2022-09-01T15:15:38;29.60;52.80
8953;DHT22;4511;50.890;8.054;2022-09-01T15:18:05;29.40;52.90
8953;DHT22;4511;50.890;8.054;2022-09-01T15:20:32;28.80;53.20
8953;DHT22;4511;50.890;8.054;2022-09-01T15:23:11;28.70;53.00
8953;DHT22;4511;50.890;8.054;2022-09-01T15:25:38;28.90;53.10
8953;DHT22;4511;50.890;8.054;2022-09-01T15:28:05;30.10;52.60
8953;DHT22;4511;50.890;8.054;2022-09-01T15:30:34;31.00;51.10
8953;DHT22;4511;50.890;8.054;2022-09-01T15:33:04;31.40;49.40
8953;DHT22;4511;50.890;8.054;2022-09-01T15:35:31;31.60;48.70
8953;DHT22;4511;50.890;8.054;2022-09-01T15:37:59;32.40;48.80
8953;DHT22;4511;50.890;8.054;2022-09-01T15:40:26;32.60;48.10
8953;DHT22;4511;50.890;8.054;2022-09-01T15:42:54;32.10;48.00
8953;DHT22;4511;50.890;8.054;2022-09-01T15:45:23;31.20;48.80
8953;DHT22;4511;50.890;8.054;2022-09-01T15:47:51;30.20;49.40
8953;DHT22;4511;50.890;8.054;2022-09-01T15:50:21;29.60;50.30
8953;DHT22;4511;50.890;8.054;2022-09-01T15:52:50;29.40;51.00
8953;DHT22;4511;50.890;8.054;2022-09-01T15:55:20;30.20;51.10
8953;DHT22;4511;50.890;8.054;2022-09-01T15:57:46;31.20;49.70
8953;DHT22;4511;50.890;8.054;2022-09-01T16:00:14;31.30;48.90
8953;DHT22;4511;50.890;8.054;2022-09-01T16:02:42;31.80;48.70
8953;DHT22;4511;50.890;8.054;2022-09-01T16:05:11;32.10;47.80
8953;DHT22;4511;50.890;8.054;2022-09-01T16:07:38;31.80;47.00
8953;DHT22;4511;50.890;8.054;2022-09-01T16:10:06;31.70;47.70
8953;DHT22;4511;50.890;8.054;2022-09-01T16:12:37;31.70;47.80
8953;DHT22;4511;50.890;8.054;2022-09-01T16:15:05;31.20;47.40
8953;DHT22;4511;50.890;8.054;2022-09-01T16:17:45;31.60;47.20
8953;DHT22;4511;50.890;8.054;2022-09-01T16:20:20;32.40;46.60
8953;DHT22;4511;50.890;8.054;2022-09-01T16:22:51;33.00;46.10
8953;DHT22;4511;50.890;8.054;2022-09-01T16:25:24;33.20;44.80